Portada
METAR-TAF:

METAR-TAF

Aeropuertos :

Aeropuerto Internacional de Jacksons

Port Moresby, Papúa Nueva Guinea

latitud: 09-26S, longitud: 147-13E, altitud: 38 m

Observación

El informe se hizo hace 6 horas y 33 minutos, a las 08:00 UTC
Viento 15 kt del sur-sureste
Temperatura 29°C
Humedad 84%
Presión 1006 hPa
Visibilidad 10 km o más
Nubes dispersas a una altura de 3000 ft
Nubes dispersas a una altura de 4000 ft
calima

METAR: AYPY 240800Z 15015KT 9999 HZ SCT030 SCT040 29/26 Q1006 RMK/DIST BUILD UPS FM N TO E

Hora: 00:33 (14:33 UTC)

Pronóstico

El informe se hizo hace 4 horas y 33 minutos, a las 10:00 UTC
Pronóstico válido del 24 a las 12 UTC al 25 a las 12 UTC
Viento 5 kt del sur-sureste
Visibilidad 10 km o más
Nubes dispersas a una altura de 4000 ft
Cielo nuboso a una altura de 14000 ft

TAF: AYPY 241000Z 2412/2512 15005KT 9999 SCT040 BKN140

Observaciones y pronósticos meteorológicos de más de 4000 aeropuertos (mensajes METAR y TAF).

Los puntos amarillos y rojos representan las estaciones disponibles.

Ponga el ratón en el punto deseado para ver el nombre de la estación.

Haga clic para ver las observaciones y los pronósticos meteorológicos.

Para cambiar el mapa : haga clic en los botones verdes con una cruz de color negro para hacer un zoom, en el botón verde con un guión para alejar o en las flechas verdes para mapas adyacentes.


METAR-TAF: